createdAt,value
2018-02-07T00:00:15.476Z,23.52
2018-02-07T00:01:18.779Z,24.08
2018-02-07T00:02:21.301Z,23.70
2018-02-07T00:03:23.834Z,23.30
2018-02-07T00:04:26.394Z,24.67
2018-02-07T00:05:29.353Z,24.77
2018-02-07T00:06:31.872Z,25.17
2018-02-07T00:07:34.442Z,22.77
2018-02-07T00:08:36.965Z,24.27
2018-02-07T00:09:39.501Z,24.23
2018-02-07T00:10:42.030Z,24.12
2018-02-07T00:11:44.592Z,24.20
2018-02-07T00:12:47.109Z,24.12
2018-02-07T00:13:49.642Z,23.80
2018-02-07T00:14:52.175Z,26.20
2018-02-07T00:15:54.696Z,24.98
2018-02-07T00:16:58.016Z,24.15
2018-02-07T00:18:00.540Z,23.98
2018-02-07T00:19:03.830Z,24.95
2018-02-07T00:20:07.152Z,25.27
2018-02-07T00:21:09.683Z,25.75
2018-02-07T00:22:14.692Z,24.85
2018-02-07T00:23:17.983Z,24.70
2018-02-07T00:24:21.274Z,24.17
2018-02-07T00:25:24.612Z,24.40
2018-02-07T00:26:27.948Z,23.98
2018-02-07T00:27:30.469Z,24.70
2018-02-07T00:28:32.990Z,24.25
2018-02-07T00:29:35.518Z,24.48
2018-02-07T00:30:38.037Z,23.83
2018-02-07T00:31:40.592Z,25.15
2018-02-07T00:32:43.109Z,24.67
2018-02-07T00:33:45.636Z,24.35
2018-02-07T00:34:48.162Z,25.50
2018-02-07T00:35:51.453Z,25.77
2018-02-07T00:36:54.774Z,25.20
2018-02-07T00:37:57.293Z,23.17
2018-02-07T00:39:00.612Z,25.67
2018-02-07T00:40:03.177Z,25.95
2018-02-07T00:41:05.697Z,24.98
2018-02-07T00:42:08.226Z,24.52
2018-02-07T00:43:10.779Z,25.75
2018-02-07T00:44:13.334Z,24.48
2018-02-07T00:45:15.862Z,24.60
2018-02-07T00:46:18.385Z,24.50
2018-02-07T00:47:20.905Z,25.37
2018-02-07T00:48:24.192Z,24.50
2018-02-07T00:49:27.545Z,23.87
2018-02-07T00:50:30.068Z,25.08
2018-02-07T00:51:32.593Z,24.75
2018-02-07T00:52:35.121Z,24.63
2018-02-07T00:53:37.644Z,25.10
2018-02-07T00:54:40.974Z,24.85
2018-02-07T00:55:43.497Z,25.27
2018-02-07T00:56:46.787Z,24.60
2018-02-07T00:57:49.306Z,25.42
2018-02-07T00:58:51.869Z,24.42
2018-02-07T00:59:54.385Z,26.27
2018-02-07T01:00:56.944Z,26.33
2018-02-07T01:02:00.242Z,26.75
2018-02-07T01:03:02.763Z,26.27
2018-02-07T01:04:05.294Z,26.48
2018-02-07T01:05:07.825Z,25.15
2018-02-07T01:06:11.160Z,25.80
2018-02-07T01:07:13.714Z,25.85
2018-02-07T01:08:16.234Z,25.60
2018-02-07T01:09:19.526Z,24.42
2018-02-07T01:10:22.816Z,24.00
2018-02-07T01:11:25.341Z,25.50
2018-02-07T01:12:27.888Z,24.60
2018-02-07T01:13:30.417Z,26.73
2018-02-07T01:14:32.942Z,25.23
2018-02-07T01:15:35.465Z,24.63
2018-02-07T01:16:37.992Z,25.45
2018-02-07T01:17:41.326Z,25.73
2018-02-07T01:18:43.928Z,25.52
2018-02-07T01:19:46.433Z,25.67
2018-02-07T01:20:48.974Z,24.42
2018-02-07T01:21:51.497Z,24.20
2018-02-07T01:22:54.063Z,25.05
2018-02-07T01:23:56.587Z,25.00
2018-02-07T01:24:59.874Z,24.83
2018-02-07T01:26:02.416Z,25.58
2018-02-07T01:27:04.953Z,23.35
2018-02-07T01:28:07.520Z,23.62
2018-02-07T01:29:10.045Z,24.80
2018-02-07T01:30:12.573Z,24.25
2018-02-07T01:31:15.099Z,25.50
2018-02-07T01:32:17.622Z,24.90
2018-02-07T01:33:20.944Z,23.87
2018-02-07T01:34:23.499Z,23.55
2018-02-07T01:35:26.020Z,24.20
2018-02-07T01:36:28.548Z,25.40
2018-02-07T01:37:31.068Z,23.08
2018-02-07T01:38:34.404Z,24.05
2018-02-07T01:39:36.929Z,25.65
2018-02-07T01:40:40.222Z,24.33
2018-02-07T01:41:42.748Z,24.33
2018-02-07T01:42:45.273Z,21.52
2018-02-07T01:43:47.832Z,25.65
2018-02-07T01:44:50.375Z,23.52
2018-02-07T01:45:53.715Z,25.25
2018-02-07T01:46:56.212Z,23.05
2018-02-07T01:47:58.775Z,24.65
2018-02-07T01:49:01.305Z,24.95
2018-02-07T01:50:03.862Z,25.55
2018-02-07T01:51:06.383Z,23.80
2018-02-07T01:52:08.934Z,25.25
2018-02-07T01:53:11.496Z,24.75
2018-02-07T01:54:14.022Z,24.08
2018-02-07T01:55:16.550Z,23.90
2018-02-07T01:56:19.836Z,24.08
2018-02-07T01:57:23.119Z,23.87
2018-02-07T01:58:26.456Z,26.25
2018-02-07T01:59:29.859Z,24.52
2018-02-07T02:00:32.490Z,25.40
2018-02-07T02:01:35.008Z,25.42
2018-02-07T02:02:37.577Z,26.15
2018-02-07T02:03:40.105Z,25.65
2018-02-07T02:04:42.620Z,23.05
2018-02-07T02:05:45.910Z,24.23
2018-02-07T02:06:49.192Z,24.70
2018-02-07T02:07:52.529Z,24.20
2018-02-07T02:08:55.071Z,25.10
2018-02-07T02:09:57.632Z,25.30
2018-02-07T02:11:00.234Z,25.92
2018-02-07T02:12:02.758Z,24.98
2018-02-07T02:13:05.281Z,24.17
2018-02-07T02:14:07.799Z,25.35
2018-02-07T02:15:10.358Z,28.30
2018-02-07T02:16:12.888Z,27.20
2018-02-07T02:17:15.415Z,25.75
2018-02-07T02:18:18.731Z,25.50
2018-02-07T02:19:21.275Z,24.45
2018-02-07T02:20:23.832Z,25.27
2018-02-07T02:21:26.356Z,24.80
2018-02-07T02:22:29.641Z,26.02
2018-02-07T02:23:32.925Z,25.08
2018-02-07T02:24:36.240Z,23.55
2018-02-07T02:25:38.792Z,25.30
2018-02-07T02:26:41.316Z,25.67
2018-02-07T02:27:43.871Z,26.10
2018-02-07T02:28:46.393Z,26.20
2018-02-07T02:29:48.921Z,23.33
2018-02-07T02:30:51.452Z,25.58
2018-02-07T02:31:53.975Z,26.40
2018-02-07T02:32:57.330Z,25.12
2018-02-07T02:33:59.849Z,25.62
2018-02-07T02:35:02.376Z,26.17
2018-02-07T02:36:16.705Z,25.50
2018-02-07T02:37:19.231Z,25.67
2018-02-07T02:38:21.796Z,27.42
2018-02-07T02:39:24.328Z,26.42
2018-02-07T02:40:27.616Z,26.55
2018-02-07T02:41:30.909Z,25.25
2018-02-07T02:42:33.437Z,24.95
2018-02-07T02:43:35.991Z,24.98
2018-02-07T02:44:38.546Z,26.17
2018-02-07T02:45:41.073Z,26.25
2018-02-07T02:46:43.604Z,25.55
2018-02-07T02:47:46.126Z,26.42
2018-02-07T02:48:48.651Z,25.88
2018-02-07T02:49:51.985Z,27.13
2018-02-07T02:50:54.510Z,27.30
2018-02-07T02:51:57.809Z,25.27
2018-02-07T02:53:00.333Z,25.33
2018-02-07T02:54:02.853Z,26.52
2018-02-07T02:55:05.408Z,24.48
2018-02-07T02:56:07.929Z,25.65
2018-02-07T02:57:10.448Z,26.15
2018-02-07T02:58:12.977Z,25.17
2018-02-07T02:59:15.497Z,25.00
2018-02-07T03:00:18.069Z,25.92
2018-02-07T03:01:20.588Z,24.83
2018-02-07T03:02:23.918Z,26.58
2018-02-07T03:03:26.450Z,27.27
2018-02-07T03:04:28.989Z,25.30
2018-02-07T03:05:31.513Z,26.23
2018-02-07T03:06:34.089Z,27.17
2018-02-07T03:07:37.374Z,26.48
2018-02-07T03:08:39.906Z,26.08
2018-02-07T03:09:42.429Z,26.90
2018-02-07T03:10:44.958Z,26.92
2018-02-07T03:11:47.515Z,25.62
2018-02-07T03:12:50.058Z,28.00
2018-02-07T03:13:53.361Z,28.62
2018-02-07T03:14:55.881Z,26.67
2018-02-07T03:15:58.435Z,26.98
2018-02-07T03:17:00.957Z,27.50
2018-02-07T03:18:03.477Z,26.70
2018-02-07T03:19:06.049Z,27.45
2018-02-07T03:20:08.578Z,27.95
2018-02-07T03:21:11.098Z,25.88
2018-02-07T03:22:14.395Z,27.45
2018-02-07T03:23:16.925Z,28.73
2018-02-07T03:24:19.516Z,27.45
2018-02-07T03:25:22.801Z,26.98
2018-02-07T03:26:26.081Z,26.90
2018-02-07T03:27:29.374Z,27.77
2018-02-07T03:28:32.661Z,27.10
2018-02-07T03:29:35.225Z,28.67
2018-02-07T03:30:38.530Z,27.13
2018-02-07T03:31:41.057Z,28.50
2018-02-07T03:32:43.585Z,26.77
2018-02-07T03:33:46.110Z,26.70
2018-02-07T03:34:48.660Z,27.40
2018-02-07T03:35:51.943Z,27.02
2018-02-07T03:36:55.265Z,26.77
2018-02-07T03:37:57.789Z,25.60
2018-02-07T03:39:01.117Z,27.35
2018-02-07T03:40:03.638Z,27.65
2018-02-07T03:41:06.164Z,27.60
2018-02-07T03:42:08.680Z,28.33
2018-02-07T03:43:11.964Z,28.10
2018-02-07T03:44:15.291Z,27.73
2018-02-07T03:45:17.818Z,27.77
2018-02-07T03:46:21.144Z,28.25
2018-02-07T03:47:23.663Z,26.85
2018-02-07T03:48:26.953Z,29.05
2018-02-07T03:49:30.241Z,27.60
2018-02-07T03:50:33.534Z,27.58
2018-02-07T03:51:36.141Z,27.37
2018-02-07T03:52:38.666Z,26.33
2018-02-07T03:53:41.212Z,27.65
2018-02-07T03:54:44.497Z,26.73
2018-02-07T03:55:47.789Z,27.25
2018-02-07T03:56:51.074Z,26.85
2018-02-07T03:57:54.356Z,28.92
2018-02-07T03:58:57.685Z,26.90
2018-02-07T04:00:00.214Z,28.35
2018-02-07T04:01:02.738Z,27.52
2018-02-07T04:02:05.277Z,27.70
2018-02-07T04:03:07.804Z,28.85
2018-02-07T04:04:11.130Z,28.15
2018-02-07T04:05:13.648Z,29.52
2018-02-07T04:06:16.945Z,27.75
2018-02-07T04:07:19.467Z,26.35
2018-02-07T04:08:22.158Z,27.40
2018-02-07T04:09:24.685Z,27.25
2018-02-07T04:10:27.214Z,27.08
2018-02-07T04:11:29.737Z,28.42
2018-02-07T04:12:32.288Z,27.55
2018-02-07T04:13:34.814Z,27.42
2018-02-07T04:14:37.346Z,27.60
2018-02-07T04:15:39.899Z,26.42
2018-02-07T04:16:42.522Z,28.62
2018-02-07T04:17:45.087Z,28.80
2018-02-07T04:18:47.614Z,29.17
2018-02-07T04:19:50.135Z,28.12
2018-02-07T04:20:52.704Z,28.55
2018-02-07T04:21:55.221Z,28.00
2018-02-07T04:22:58.508Z,28.10
2018-02-07T04:24:01.797Z,27.87
2018-02-07T04:25:05.089Z,28.05
2018-02-07T04:26:08.409Z,28.50
2018-02-07T04:27:10.934Z,28.85
2018-02-07T04:28:14.218Z,28.20
2018-02-07T04:29:17.502Z,27.80
2018-02-07T04:30:20.836Z,28.40
2018-02-07T04:31:23.363Z,28.35
2018-02-07T04:32:25.884Z,28.38
2018-02-07T04:33:28.404Z,26.70
2018-02-07T04:34:30.930Z,27.83
2018-02-07T04:35:33.539Z,28.10
2018-02-07T04:36:36.060Z,26.55
2018-02-07T04:37:38.611Z,28.50
2018-02-07T04:38:41.144Z,28.35
2018-02-07T04:39:43.701Z,28.90
2018-02-07T04:40:46.259Z,29.37
2018-02-07T04:41:48.787Z,27.45
2018-02-07T04:42:51.404Z,26.92
2018-02-07T04:43:53.929Z,27.35
2018-02-07T04:44:56.458Z,27.33
2018-02-07T04:45:59.029Z,26.42
2018-02-07T04:47:01.553Z,28.87
2018-02-07T04:48:04.836Z,27.05
2018-02-07T04:49:08.118Z,26.98
2018-02-07T04:50:11.415Z,29.70
2018-02-07T04:51:13.968Z,24.08
2018-02-07T04:52:17.258Z,27.37
2018-02-07T04:53:19.777Z,26.85
2018-02-07T04:54:22.526Z,27.45
2018-02-07T04:55:25.052Z,28.85
2018-02-07T04:56:28.379Z,27.70
2018-02-07T04:57:30.900Z,28.23
2018-02-07T04:58:34.187Z,37.00
2018-02-07T04:59:37.484Z,39.97
2018-02-07T05:00:40.018Z,57.17
2018-02-07T05:01:42.569Z,53.25
2018-02-07T05:02:45.091Z,76.57
2018-02-07T05:03:47.617Z,71.55
2018-02-07T05:04:50.179Z,149.57
2018-02-07T05:05:52.702Z,131.45
2018-02-07T05:06:55.258Z,132.73
2018-02-07T05:07:57.787Z,49.80
2018-02-07T05:09:01.136Z,240.45
2018-02-07T05:10:03.693Z,133.75
2018-02-07T05:11:06.238Z,217.55
2018-02-07T05:12:08.769Z,191.95
2018-02-07T05:13:11.301Z,159.65
2018-02-07T05:14:13.861Z,83.93
2018-02-07T05:15:16.389Z,73.80
2018-02-07T05:16:18.916Z,40.08
2018-02-07T05:17:21.535Z,38.38
2018-02-07T05:18:24.093Z,37.80
2018-02-07T05:19:26.616Z,36.85
2018-02-07T05:20:29.174Z,40.90
2018-02-07T05:21:31.744Z,35.95
2018-02-07T05:22:34.266Z,42.05
2018-02-07T05:23:36.786Z,46.28
2018-02-07T05:24:39.310Z,50.38
2018-02-07T05:25:41.833Z,48.85
2018-02-07T05:26:45.154Z,49.42
2018-02-07T05:27:47.680Z,42.25
2018-02-07T05:28:50.204Z,81.90
2018-02-07T05:29:52.744Z,63.30
2018-02-07T05:30:55.273Z,89.50
2018-02-07T05:31:57.831Z,80.38
2018-02-07T05:33:00.353Z,68.50
2018-02-07T05:34:02.873Z,82.18
2018-02-07T05:35:05.429Z,52.40
2018-02-07T05:36:07.952Z,79.00
2018-02-07T05:37:10.477Z,50.97
2018-02-07T05:38:13.797Z,51.95
2018-02-07T05:39:16.313Z,42.67
2018-02-07T05:40:18.846Z,38.67
2018-02-07T05:41:21.377Z,52.38
2018-02-07T05:42:24.755Z,43.38
2018-02-07T05:43:28.054Z,60.95
2018-02-07T05:44:30.585Z,46.67
2018-02-07T05:45:33.144Z,39.40
2018-02-07T05:46:35.666Z,36.58
2018-02-07T05:47:38.194Z,36.97
2018-02-07T05:48:41.741Z,32.28
2018-02-07T05:49:44.261Z,38.42
2018-02-07T05:50:47.557Z,36.10
2018-02-07T05:51:50.082Z,41.88
2018-02-07T05:52:52.601Z,42.47
2018-02-07T05:53:55.168Z,39.22
2018-02-07T05:54:57.690Z,33.55
2018-02-07T05:56:00.984Z,38.40
2018-02-07T05:57:04.276Z,34.05
2018-02-07T05:58:07.571Z,45.53
2018-02-07T05:59:10.150Z,36.38
2018-02-07T06:00:12.676Z,32.20
2018-02-07T06:01:15.201Z,38.40
2018-02-07T06:02:17.722Z,30.67
2018-02-07T06:03:21.020Z,38.03
2018-02-07T06:04:23.593Z,35.13
2018-02-07T06:05:26.112Z,42.55
2018-02-07T06:06:28.630Z,37.13
2018-02-07T06:07:31.149Z,40.25
2018-02-07T06:08:33.671Z,33.15
2018-02-07T06:09:36.376Z,33.70
2018-02-07T06:10:38.943Z,35.33
2018-02-07T06:11:41.480Z,37.00
2018-02-07T06:12:44.012Z,33.60
2018-02-07T06:13:47.300Z,32.30
2018-02-07T06:14:49.848Z,33.75
2018-02-07T06:15:53.159Z,30.70
2018-02-07T06:16:55.718Z,34.67
2018-02-07T06:17:58.276Z,29.63
2018-02-07T06:19:01.577Z,29.10
2018-02-07T06:20:04.098Z,30.17
2018-02-07T06:21:06.616Z,28.12
2018-02-07T06:22:09.277Z,27.70
2018-02-07T06:23:11.825Z,28.75
2018-02-07T06:24:15.112Z,30.33
2018-02-07T06:25:18.405Z,34.50
2018-02-07T06:26:20.928Z,28.62
2018-02-07T06:27:23.457Z,27.77
2018-02-07T06:28:26.028Z,27.15
2018-02-07T06:29:28.556Z,29.25
2018-02-07T06:30:31.840Z,28.05
2018-02-07T06:31:35.124Z,29.58
2018-02-07T06:32:38.412Z,27.25
2018-02-07T06:33:41.734Z,27.80
2018-02-07T06:34:45.035Z,27.80
2018-02-07T06:35:47.556Z,30.50
2018-02-07T06:36:50.077Z,29.40
2018-02-07T06:37:52.597Z,27.80
2018-02-07T06:38:55.166Z,28.73
2018-02-07T06:39:57.688Z,30.30
2018-02-07T06:41:00.274Z,28.08
2018-02-07T06:42:03.557Z,28.55
2018-02-07T06:43:06.845Z,26.87
2018-02-07T06:44:10.169Z,26.90
2018-02-07T06:45:12.688Z,26.40
2018-02-07T06:46:15.968Z,28.45
2018-02-07T06:47:19.257Z,27.25
2018-02-07T06:48:22.546Z,27.75
2018-02-07T06:49:25.113Z,27.23
2018-02-07T06:50:28.412Z,28.15
2018-02-07T06:51:30.937Z,28.08
2018-02-07T06:52:33.520Z,26.67
2018-02-07T06:53:36.013Z,27.05
2018-02-07T06:54:38.574Z,28.23
2018-02-07T06:55:41.098Z,28.30
2018-02-07T06:56:43.618Z,27.10
2018-02-07T06:57:46.148Z,28.70
2018-02-07T06:58:49.447Z,27.33
2018-02-07T06:59:52.008Z,28.98
2018-02-07T07:00:55.341Z,28.80
2018-02-07T07:01:57.872Z,26.95
2018-02-07T07:03:00.396Z,29.20
2018-02-07T07:04:02.919Z,28.40
2018-02-07T07:05:05.453Z,27.67
2018-02-07T07:06:08.783Z,27.20
2018-02-07T07:07:11.319Z,27.80
2018-02-07T07:08:13.844Z,28.92
2018-02-07T07:09:16.364Z,30.45
2018-02-07T07:10:18.881Z,30.65
2018-02-07T07:11:21.452Z,28.33
2018-02-07T07:12:23.973Z,28.30
2018-02-07T07:13:26.500Z,28.80
2018-02-07T07:14:29.803Z,29.00
2018-02-07T07:15:32.328Z,28.33
2018-02-07T07:16:34.892Z,29.05
2018-02-07T07:17:37.417Z,28.65
2018-02-07T07:18:39.941Z,26.55
2018-02-07T07:19:43.235Z,27.92
2018-02-07T07:20:46.544Z,28.67
2018-02-07T07:21:49.111Z,28.62
2018-02-07T07:22:51.656Z,28.92
2018-02-07T07:23:54.181Z,30.05
2018-02-07T07:24:56.704Z,29.48
2018-02-07T07:25:59.262Z,29.23
2018-02-07T07:27:01.790Z,28.08
2018-02-07T07:28:04.352Z,28.30
2018-02-07T07:29:06.873Z,27.87
2018-02-07T07:30:09.433Z,27.15
2018-02-07T07:31:11.988Z,26.83
2018-02-07T07:32:14.512Z,28.73
2018-02-07T07:33:17.085Z,28.00
2018-02-07T07:34:19.614Z,29.30
2018-02-07T07:35:22.132Z,29.40
2018-02-07T07:36:25.423Z,28.02
2018-02-07T07:37:28.717Z,28.50
2018-02-07T07:38:32.044Z,28.77
2018-02-07T07:39:34.564Z,27.23
2018-02-07T07:40:37.849Z,26.90
2018-02-07T07:41:41.144Z,26.90
2018-02-07T07:42:43.664Z,25.85
2018-02-07T07:43:46.216Z,26.20
2018-02-07T07:44:48.743Z,26.85
2018-02-07T07:45:51.265Z,27.27
2018-02-07T07:46:53.784Z,26.42
2018-02-07T07:47:56.346Z,25.88
2018-02-07T07:48:58.860Z,28.17
2018-02-07T07:50:01.397Z,25.62
2018-02-07T07:51:03.932Z,27.25
2018-02-07T07:52:06.460Z,27.17
2018-02-07T07:53:09.071Z,27.08
2018-02-07T07:54:11.597Z,26.42
2018-02-07T07:55:14.125Z,25.75
2018-02-07T07:56:16.648Z,27.83
2018-02-07T07:57:19.966Z,26.48
2018-02-07T07:58:22.540Z,27.42
2018-02-07T07:59:25.065Z,25.23
2018-02-07T08:00:28.370Z,25.90
2018-02-07T08:01:30.905Z,27.00
2018-02-07T08:02:33.433Z,27.77
2018-02-07T08:03:36.002Z,27.73
2018-02-07T08:04:38.512Z,24.95
2018-02-07T08:05:41.801Z,26.90
2018-02-07T08:06:45.089Z,25.73
2018-02-07T08:07:48.529Z,26.83
2018-02-07T08:08:51.101Z,24.20
2018-02-07T08:09:53.625Z,25.25
2018-02-07T08:10:56.148Z,25.58
2018-02-07T08:11:59.456Z,26.45
2018-02-07T08:13:02.736Z,26.00
2018-02-07T08:14:06.061Z,25.85
2018-02-07T08:15:08.588Z,27.55
2018-02-07T08:16:11.132Z,25.52
2018-02-07T08:17:13.644Z,23.70
2018-02-07T08:18:16.160Z,26.08
2018-02-07T08:19:18.708Z,25.75
2018-02-07T08:20:21.228Z,25.10
2018-02-07T08:21:23.753Z,26.62
2018-02-07T08:22:26.281Z,26.75
2018-02-07T08:23:29.099Z,25.27
2018-02-07T08:24:31.616Z,27.70
2018-02-07T08:25:34.138Z,26.12
2018-02-07T08:26:36.664Z,25.10
2018-02-07T08:27:39.220Z,26.30
2018-02-07T08:28:41.750Z,25.17
2018-02-07T08:29:45.142Z,25.05
2018-02-07T08:30:48.428Z,25.30
2018-02-07T08:31:50.957Z,24.40
2018-02-07T08:32:53.485Z,24.87
2018-02-07T08:33:56.010Z,24.40
2018-02-07T08:34:59.332Z,24.37
2018-02-07T08:36:01.861Z,23.95
2018-02-07T08:37:05.153Z,24.05
2018-02-07T08:38:08.471Z,24.20
2018-02-07T08:39:11.041Z,26.23
2018-02-07T08:40:13.572Z,25.27
2018-02-07T08:41:16.864Z,23.75
2018-02-07T08:42:19.394Z,24.48
2018-02-07T08:43:21.917Z,24.37
2018-02-07T08:44:24.488Z,24.85
2018-02-07T08:45:27.016Z,24.73
2018-02-07T08:46:30.309Z,24.73
2018-02-07T08:47:33.600Z,26.10
2018-02-07T08:48:36.130Z,24.45
2018-02-07T08:49:38.689Z,24.30
2018-02-07T08:50:41.212Z,24.80
2018-02-07T08:51:43.741Z,23.85
2018-02-07T08:52:47.032Z,24.48
2018-02-07T08:53:50.364Z,24.77
2018-02-07T08:54:52.885Z,22.25
2018-02-07T08:55:56.168Z,23.15
2018-02-07T08:56:59.459Z,25.05
2018-02-07T08:58:02.744Z,22.55
2018-02-07T08:59:06.064Z,23.87
2018-02-07T09:00:08.597Z,25.77
2018-02-07T09:01:11.122Z,24.02
2018-02-07T09:02:13.646Z,24.25
2018-02-07T09:03:16.227Z,24.50
2018-02-07T09:04:18.756Z,24.20
2018-02-07T09:05:22.042Z,24.33
2018-02-07T09:06:24.568Z,23.27
2018-02-07T09:07:27.088Z,24.35
2018-02-07T09:08:29.621Z,24.12
2018-02-07T09:09:32.968Z,23.25
2018-02-07T09:10:35.521Z,25.80
2018-02-07T09:11:38.041Z,25.10
2018-02-07T09:12:41.324Z,24.52
2018-02-07T09:13:44.618Z,23.83
2018-02-07T09:14:47.953Z,23.70
2018-02-07T09:15:50.478Z,24.48
2018-02-07T09:16:53.001Z,24.80
2018-02-07T09:17:55.511Z,23.85
2018-02-07T09:18:58.042Z,24.20
2018-02-07T09:20:00.609Z,23.87
2018-02-07T09:21:03.128Z,22.60
2018-02-07T09:22:05.658Z,24.02
2018-02-07T09:23:08.946Z,24.77
2018-02-07T09:24:12.277Z,23.33
2018-02-07T09:25:14.801Z,23.35
2018-02-07T09:26:18.099Z,23.60
2018-02-07T09:27:20.620Z,22.27
2018-02-07T09:28:23.140Z,23.48
2018-02-07T09:29:25.700Z,23.35
2018-02-07T09:30:28.224Z,24.55
2018-02-07T09:31:30.740Z,21.92
2018-02-07T09:32:33.257Z,22.37
2018-02-07T09:33:35.780Z,23.62
2018-02-07T09:34:38.338Z,22.13
2018-02-07T09:35:40.888Z,24.23
2018-02-07T09:36:44.171Z,22.50
2018-02-07T09:37:46.704Z,23.33
2018-02-07T09:38:49.264Z,22.77
2018-02-07T09:39:51.778Z,22.58
2018-02-07T09:40:54.288Z,23.80
2018-02-07T09:41:56.803Z,23.38
2018-02-07T09:42:59.356Z,22.48
2018-02-07T09:44:02.637Z,23.75
2018-02-07T09:45:05.933Z,22.33
2018-02-07T09:46:08.453Z,24.27
2018-02-07T09:47:11.004Z,22.73
2018-02-07T09:48:13.532Z,23.65
2018-02-07T09:49:16.048Z,23.23
2018-02-07T09:50:18.564Z,22.52
2018-02-07T09:51:21.088Z,23.73
2018-02-07T09:52:23.637Z,22.50
2018-02-07T09:53:26.152Z,22.20
2018-02-07T09:54:29.445Z,24.08
2018-02-07T09:55:31.986Z,24.20
2018-02-07T09:56:35.313Z,25.17
2018-02-07T09:57:37.819Z,24.05
2018-02-07T09:58:40.476Z,22.40
2018-02-07T09:59:42.997Z,23.27
2018-02-07T10:00:45.561Z,23.08
2018-02-07T10:01:48.074Z,22.80
2018-02-07T10:02:50.593Z,24.05
2018-02-07T10:03:53.121Z,22.45
2018-02-07T10:04:55.637Z,25.33
2018-02-07T10:05:58.208Z,23.40
2018-02-07T10:07:00.733Z,23.23
2018-02-07T10:08:04.023Z,23.25
2018-02-07T10:09:07.303Z,24.27
2018-02-07T10:10:10.597Z,23.50
2018-02-07T10:11:13.920Z,23.17
2018-02-07T10:12:16.435Z,23.70
2018-02-07T10:13:18.975Z,22.58
2018-02-07T10:14:21.536Z,24.00
2018-02-07T10:15:24.068Z,23.77
2018-02-07T10:16:26.576Z,23.95
2018-02-07T10:17:29.133Z,23.70
2018-02-07T10:18:31.653Z,22.83
2018-02-07T10:19:34.166Z,23.87
2018-02-07T10:20:36.802Z,22.77
2018-02-07T10:21:39.321Z,22.87
2018-02-07T10:22:41.849Z,23.48
2018-02-07T10:23:44.421Z,22.95
2018-02-07T10:24:46.934Z,22.55
2018-02-07T10:25:50.221Z,22.80
2018-02-07T10:26:53.512Z,22.87
2018-02-07T10:27:56.804Z,23.48
2018-02-07T10:28:59.377Z,23.73
2018-02-07T10:30:01.896Z,23.25
2018-02-07T10:31:04.419Z,24.25
2018-02-07T10:32:06.934Z,23.17
2018-02-07T10:33:09.478Z,22.77
2018-02-07T10:34:12.057Z,23.30
2018-02-07T10:35:14.568Z,23.00
2018-02-07T10:36:17.105Z,22.85
2018-02-07T10:37:19.625Z,22.55
2018-02-07T10:38:22.149Z,23.92
2018-02-07T10:39:25.484Z,25.52
2018-02-07T10:40:28.005Z,23.35
2018-02-07T10:41:31.300Z,22.45
2018-02-07T10:42:33.826Z,23.92
2018-02-07T10:43:36.340Z,22.33
2018-02-07T10:44:38.905Z,24.23
2018-02-07T10:45:41.460Z,22.77
2018-02-07T10:46:44.742Z,21.65
2018-02-07T10:47:48.026Z,23.42
2018-02-07T10:48:51.306Z,24.48
2018-02-07T10:49:54.630Z,21.58
2018-02-07T10:50:57.154Z,25.45
2018-02-07T10:52:00.438Z,24.40
2018-02-07T10:53:03.721Z,22.05
2018-02-07T10:54:07.005Z,23.20
2018-02-07T10:55:10.333Z,22.62
2018-02-07T10:56:12.853Z,23.12
2018-02-07T10:57:16.140Z,23.95
2018-02-07T10:58:19.432Z,23.05
2018-02-07T10:59:21.947Z,23.73
2018-02-07T11:00:24.504Z,22.45
2018-02-07T11:01:27.793Z,23.05
2018-02-07T11:02:30.327Z,23.17
2018-02-07T11:03:32.846Z,23.62
2018-02-07T11:04:35.372Z,23.48
2018-02-07T11:05:37.941Z,22.98
2018-02-07T11:06:40.477Z,23.20
2018-02-07T11:07:43.129Z,23.27
2018-02-07T11:08:46.414Z,24.27
2018-02-07T11:09:49.703Z,22.75
2018-02-07T11:10:53.045Z,22.95
2018-02-07T11:11:55.574Z,22.23
2018-02-07T11:12:58.226Z,22.77
2018-02-07T11:14:01.509Z,24.67
2018-02-07T11:15:04.797Z,24.20
2018-02-07T11:16:08.119Z,23.73
2018-02-07T11:17:10.646Z,22.95
2018-02-07T11:18:13.173Z,21.37
2018-02-07T11:19:15.707Z,23.42
2018-02-07T11:20:18.229Z,23.33
2018-02-07T11:21:20.774Z,25.05
2018-02-07T11:22:23.285Z,23.10
2018-02-07T11:23:25.802Z,22.42
2018-02-07T11:24:28.428Z,23.45
2018-02-07T11:25:31.609Z,22.75
2018-02-07T11:26:34.164Z,25.55
2018-02-07T11:27:36.702Z,22.73
2018-02-07T11:28:39.221Z,24.92
2018-02-07T11:29:41.746Z,22.98
2018-02-07T11:30:45.165Z,23.45
2018-02-07T11:31:47.709Z,22.65
2018-02-07T11:32:50.988Z,23.95
2018-02-07T11:33:54.289Z,23.70
2018-02-07T11:36:05.849Z,24.75
2018-02-07T11:37:09.176Z,24.80
2018-02-07T11:38:11.701Z,23.25
2018-02-07T11:39:15.017Z,23.95
2018-02-07T11:40:17.533Z,22.40
2018-02-07T11:41:20.048Z,23.40
2018-02-07T11:42:22.569Z,23.90
2018-02-07T11:43:25.088Z,24.15
2018-02-07T11:44:27.646Z,23.10
2018-02-07T11:45:30.164Z,23.35
2018-02-07T11:46:32.685Z,23.65
2018-02-07T11:47:35.218Z,23.75
2018-02-07T11:48:38.544Z,23.08
2018-02-07T11:49:41.071Z,23.83
2018-02-07T11:50:44.393Z,22.27
2018-02-07T11:51:46.910Z,23.70
2018-02-07T11:52:50.200Z,23.67
2018-02-07T11:53:53.492Z,23.77
2018-02-07T11:54:56.782Z,24.85
2018-02-07T11:55:59.354Z,24.63
2018-02-07T11:57:01.878Z,25.92
2018-02-07T11:58:04.405Z,22.00
2018-02-07T11:59:06.945Z,24.50
2018-02-07T12:00:09.460Z,24.58
2018-02-07T12:01:12.019Z,23.73
2018-02-07T12:02:14.536Z,24.95
2018-02-07T12:03:17.822Z,23.87
2018-02-07T12:04:20.358Z,24.85
2018-02-07T12:05:22.908Z,24.37
2018-02-07T12:06:25.438Z,23.87
2018-02-07T12:07:27.957Z,22.55
2018-02-07T12:08:30.473Z,22.75
2018-02-07T12:09:32.991Z,24.65
2018-02-07T12:10:35.554Z,24.20
2018-02-07T12:11:38.167Z,24.10
2018-02-07T12:12:40.684Z,24.05
2018-02-07T12:13:43.202Z,24.55
2018-02-07T12:14:45.732Z,23.48
2018-02-07T12:15:49.067Z,23.58
2018-02-07T12:16:51.589Z,25.58
2018-02-07T12:17:54.899Z,22.02
2018-02-07T12:18:57.417Z,23.52
2018-02-07T12:19:59.944Z,24.35
2018-02-07T12:21:02.503Z,23.38
2018-02-07T12:22:05.021Z,22.30
2018-02-07T12:23:07.554Z,22.25
2018-02-07T12:24:10.082Z,23.67
2018-02-07T12:25:12.633Z,22.50
2018-02-07T12:26:15.913Z,23.90
2018-02-07T12:27:19.222Z,23.52
2018-02-07T12:28:21.740Z,22.85
2018-02-07T12:29:24.274Z,24.00
2018-02-07T12:30:26.825Z,23.55
2018-02-07T12:31:29.353Z,22.98
2018-02-07T12:32:31.889Z,23.40
2018-02-07T12:33:34.418Z,24.25
2018-02-07T12:34:36.963Z,24.40
2018-02-07T12:35:40.281Z,23.92
2018-02-07T12:36:42.806Z,23.15
2018-02-07T12:37:45.332Z,25.98
2018-02-07T12:38:47.880Z,23.02
2018-02-07T12:39:50.418Z,24.83
2018-02-07T12:40:53.753Z,25.40
2018-02-07T12:41:56.278Z,24.85
2018-02-07T12:42:58.796Z,24.00
2018-02-07T12:44:01.321Z,24.30
2018-02-07T12:45:03.919Z,24.10
2018-02-07T12:46:06.461Z,22.87
2018-02-07T12:47:08.987Z,23.67
2018-02-07T12:48:12.286Z,24.17
2018-02-07T12:49:15.616Z,22.52
2018-02-07T12:50:18.165Z,23.87
2018-02-07T12:51:20.678Z,22.30
2018-02-07T12:53:32.052Z,24.10
2018-02-07T12:54:34.601Z,23.55
2018-02-07T12:55:37.112Z,23.50
2018-02-07T12:56:40.396Z,25.23
2018-02-07T12:57:43.681Z,23.90
2018-02-07T12:58:47.088Z,23.50
2018-02-07T12:59:49.645Z,23.65
2018-02-07T13:00:52.169Z,25.25
2018-02-07T13:01:54.691Z,23.00
2018-02-07T13:02:58.061Z,23.60
2018-02-07T13:04:00.587Z,22.70
2018-02-07T13:05:03.145Z,24.77
2018-02-07T13:06:05.677Z,23.42
2018-02-07T13:07:08.246Z,23.60
2018-02-07T13:08:10.769Z,24.85
2018-02-07T13:09:13.289Z,21.80
2018-02-07T13:10:15.813Z,24.40
2018-02-07T13:11:19.102Z,24.83
2018-02-07T13:12:21.665Z,24.02
2018-02-07T13:13:24.941Z,23.15
2018-02-07T13:14:28.225Z,24.10
2018-02-07T13:15:32.369Z,22.70
2018-02-07T13:16:34.898Z,23.33
2018-02-07T13:17:38.220Z,23.60
2018-02-07T13:18:40.735Z,22.77
2018-02-07T13:19:44.040Z,24.50
2018-02-07T13:20:46.573Z,24.55
2018-02-07T13:21:49.133Z,23.27
2018-02-07T13:22:51.661Z,23.75
2018-02-07T13:23:54.177Z,24.05
2018-02-07T13:24:56.722Z,24.27
2018-02-07T13:25:59.253Z,24.23
2018-02-07T13:27:01.825Z,25.33
2018-02-07T13:28:04.337Z,23.77
2018-02-07T13:29:06.865Z,23.65
2018-02-07T13:30:09.395Z,22.95